createdAt,value
2022-08-19T00:02:04.585Z,99352.56
2022-08-19T00:04:37.370Z,99340.88
2022-08-19T00:07:07.078Z,99333.78
2022-08-19T00:09:35.017Z,99343.03
2022-08-19T00:12:02.854Z,99341.44
2022-08-19T00:14:33.658Z,99339.53
2022-08-19T00:17:05.776Z,99336.00
2022-08-19T00:19:33.459Z,99339.81
2022-08-19T00:22:00.926Z,99342.81
2022-08-19T00:24:28.162Z,99341.19
2022-08-19T00:26:56.142Z,99337.66
2022-08-19T00:29:25.534Z,99343.38
2022-08-19T00:31:57.491Z,99337.13
2022-08-19T00:34:24.715Z,99331.16
2022-08-19T00:36:51.716Z,99320.56
2022-08-19T00:39:19.214Z,99322.47
2022-08-19T00:41:49.757Z,99323.53
2022-08-19T00:44:27.212Z,99321.09
2022-08-19T00:46:58.226Z,99331.19
2022-08-19T00:49:36.350Z,99324.13
2022-08-19T00:52:17.540Z,99329.56
2022-08-19T00:54:52.390Z,99338.81
2022-08-19T00:57:31.748Z,99338.28
2022-08-19T01:00:03.090Z,99330.38
2022-08-19T01:02:33.350Z,99324.13
2022-08-19T01:05:06.280Z,99317.09
2022-08-19T01:07:37.894Z,99306.50
2022-08-19T01:10:09.505Z,99304.06
2022-08-19T01:12:37.264Z,99313.31
2022-08-19T01:15:09.568Z,99319.81
2022-08-19T01:17:39.552Z,99319.28
2022-08-19T01:20:10.440Z,99322.31
2022-08-19T01:22:52.143Z,99329.09
2022-08-19T01:25:25.065Z,99328.28
2022-08-19T01:27:54.680Z,99322.31
2022-08-19T01:30:30.232Z,99325.31
2022-08-19T01:33:01.498Z,99326.44
2022-08-19T01:35:31.040Z,99328.34
2022-08-19T01:38:06.908Z,99323.97
2022-08-19T01:40:36.216Z,99316.91
2022-08-19T01:43:04.746Z,99315.28
2022-08-19T01:45:34.573Z,99315.56
2022-08-19T01:48:02.705Z,99326.44
2022-08-19T01:50:32.688Z,99337.59
2022-08-19T01:53:05.996Z,99335.13
2022-08-19T01:55:40.613Z,99338.94
2022-08-19T01:58:15.268Z,99346.56
2022-08-19T02:00:42.798Z,99335.72
2022-08-19T02:03:12.039Z,99338.72
2022-08-19T02:05:40.912Z,99338.72
2022-08-19T02:08:09.068Z,99341.72
2022-08-19T02:10:44.464Z,99340.34
2022-08-19T02:13:14.395Z,99342.25
2022-08-19T02:15:42.290Z,99341.44
2022-08-19T02:18:09.785Z,99337.91
2022-08-19T02:20:38.632Z,99330.84
2022-08-19T02:23:13.866Z,99327.31
2022-08-19T02:25:46.788Z,99331.94
2022-08-19T02:28:18.327Z,99340.34
2022-08-19T02:30:47.681Z,99342.25
2022-08-19T02:33:15.610Z,99335.22
2022-08-19T02:35:45.832Z,99336.31
2022-08-19T02:38:26.199Z,99331.97
2022-08-19T02:41:00.549Z,99326.00
2022-08-19T02:43:33.619Z,99322.72
2022-08-19T02:46:01.850Z,99325.44
2022-08-19T02:48:29.119Z,99322.22
2022-08-19T02:50:56.361Z,99324.41
2022-08-19T02:53:27.644Z,99321.69
2022-08-19T02:55:55.216Z,99323.84
2022-08-19T02:58:22.908Z,99322.22
2022-08-19T03:00:54.304Z,99320.59
2022-08-19T03:03:22.148Z,99317.34
2022-08-19T03:05:56.259Z,99312.97
2022-08-19T03:08:25.111Z,99312.44
2022-08-19T03:10:53.764Z,99311.09
2022-08-19T03:13:20.940Z,99307.56
2022-08-19T03:15:49.244Z,99304.31
2022-08-19T03:18:18.067Z,99314.34
2022-08-19T03:20:51.341Z,99314.09
2022-08-19T03:23:18.445Z,99321.72
2022-08-19T03:25:58.409Z,99322.78
2022-08-19T03:28:35.542Z,99330.69
2022-08-19T03:31:42.099Z,99332.06
2022-08-19T03:33:58.371Z,99330.41
2022-08-19T03:36:28.529Z,99333.41
2022-08-19T03:39:00.211Z,99327.44
2022-08-19T03:41:45.098Z,99336.13
2022-08-19T03:44:18.032Z,99332.06
2022-08-19T03:46:48.324Z,99335.34
2022-08-19T03:49:18.353Z,99340.22
2022-08-19T03:51:47.662Z,99340.78
2022-08-19T03:54:20.353Z,99351.09
2022-08-19T03:56:50.956Z,99340.78
2022-08-19T03:59:29.433Z,99340.25
2022-08-19T04:01:59.760Z,99336.97
2022-08-19T04:04:29.192Z,99342.97
2022-08-19T04:06:57.830Z,99350.00
2022-08-19T04:09:25.281Z,99345.66
2022-08-19T04:11:55.845Z,99342.41
2022-08-19T04:14:29.241Z,99339.19
2022-08-19T04:16:56.796Z,99337.53
2022-08-19T04:19:24.100Z,99332.66
2022-08-19T04:21:54.146Z,99341.88
2022-08-19T04:24:22.374Z,99348.66
2022-08-19T04:26:50.715Z,99350.84
2022-08-19T04:29:26.066Z,99359.25
2022-08-19T04:31:56.439Z,99343.50
2022-08-19T04:34:27.648Z,99344.59
2022-08-19T04:36:57.442Z,99335.91
2022-08-19T04:39:48.959Z,99334.56
2022-08-19T04:42:37.476Z,99333.19
2022-08-19T04:45:09.435Z,99339.69
2022-08-19T04:47:47.592Z,99336.44
2022-08-19T04:50:26.884Z,99338.56
2022-08-19T04:52:54.115Z,99344.00
2022-08-19T04:55:21.385Z,99342.38
2022-08-19T04:57:48.468Z,99339.94
2022-08-19T05:00:15.748Z,99339.94
2022-08-19T05:02:43.548Z,99337.50
2022-08-19T05:05:10.885Z,99346.75
2022-08-19T05:07:38.303Z,99347.56
2022-08-19T05:10:07.290Z,99355.69
2022-08-19T05:12:34.632Z,99357.59
2022-08-19T05:15:04.671Z,99370.06
2022-08-19T05:17:36.206Z,99360.84
2022-08-19T05:20:26.061Z,99360.84
2022-08-19T05:22:53.317Z,99352.69
2022-08-19T05:25:22.591Z,99363.53
2022-08-19T05:27:49.925Z,99369.50
2022-08-19T05:30:18.122Z,99380.34
2022-08-19T05:32:45.581Z,99388.25
2022-08-19T05:35:13.112Z,99384.44
2022-08-19T05:37:43.713Z,99384.16
2022-08-19T05:40:11.477Z,99389.06
2022-08-19T05:42:38.813Z,99399.41
2022-08-19T05:45:06.954Z,99397.22
2022-08-19T05:47:34.016Z,99401.84
2022-08-19T05:50:05.139Z,99406.72
2022-08-19T05:52:32.662Z,99405.13
2022-08-19T05:55:00.544Z,99408.34
2022-08-19T05:57:29.867Z,99422.22
2022-08-19T05:59:59.108Z,99427.09
2022-08-19T06:02:31.958Z,99432.81
2022-08-19T06:04:59.244Z,99429.25
2022-08-19T06:07:27.015Z,99434.69
2022-08-19T06:09:58.908Z,99444.47
2022-08-19T06:12:33.991Z,99445.56
2022-08-19T06:15:09.709Z,99448.25
2022-08-19T06:17:37.115Z,99448.28
2022-08-19T06:20:11.194Z,99453.16
2022-08-19T06:22:43.188Z,99448.81
2022-08-19T06:25:11.176Z,99458.03
2022-08-19T06:27:53.118Z,99465.09
2022-08-19T06:30:25.549Z,99467.28
2022-08-19T06:32:52.594Z,99458.03
2022-08-19T06:35:20.261Z,99461.84
2022-08-19T06:37:47.965Z,99461.88
2022-08-19T06:40:15.178Z,99461.88
2022-08-19T06:42:50.214Z,99467.28
2022-08-19T06:45:25.110Z,99464.53
2022-08-19T06:48:01.859Z,99467.25
2022-08-19T06:50:28.817Z,99466.16
2022-08-19T06:52:55.976Z,99459.91
2022-08-19T06:55:23.127Z,99466.16
2022-08-19T06:57:54.418Z,99468.84
2022-08-19T07:00:21.992Z,99461.75
2022-08-19T07:02:55.863Z,99453.03
2022-08-19T07:05:26.142Z,99464.19
2022-08-19T07:07:53.158Z,99466.63
2022-08-19T07:10:20.543Z,99455.22
2022-08-19T07:12:48.529Z,99453.56
2022-08-19T07:15:17.884Z,99454.13
2022-08-19T07:17:45.842Z,99452.50
2022-08-19T07:20:17.053Z,99450.81
2022-08-19T07:22:46.354Z,99444.03
2022-08-19T07:25:14.208Z,99452.72
2022-08-19T07:27:41.164Z,99452.44
2022-08-19T07:30:11.621Z,99454.63
2022-08-19T07:32:43.304Z,99455.44
2022-08-19T07:35:10.787Z,99456.47
2022-08-19T07:37:39.193Z,99449.69
2022-08-19T07:40:08.501Z,99457.00
2022-08-19T07:42:35.624Z,99462.44
2022-08-19T07:45:03.182Z,99464.06
2022-08-19T07:47:49.270Z,99464.34
2022-08-19T07:50:21.075Z,99457.22
2022-08-19T07:52:50.534Z,99461.00
2022-08-19T07:55:40.558Z,99458.00
2022-08-19T07:58:12.116Z,99472.41
2022-08-19T08:00:39.737Z,99465.31
2022-08-19T08:03:06.997Z,99471.53
2022-08-19T08:05:52.401Z,99462.53
2022-08-19T08:08:37.833Z,99467.94
2022-08-19T08:11:12.338Z,99466.28
2022-08-19T08:13:43.202Z,99463.50
2022-08-19T08:16:14.380Z,99470.56
2022-08-19T08:18:50.562Z,99471.59
2022-08-19T08:21:18.152Z,99470.44
2022-08-19T08:23:45.179Z,99459.13
2022-08-19T08:26:13.932Z,99464.44
2022-08-19T08:28:43.037Z,99465.41
2022-08-19T08:31:15.517Z,99476.22
2022-08-19T08:33:43.212Z,99486.47
2022-08-19T08:36:11.889Z,99487.41
2022-08-19T08:38:40.557Z,99480.16
2022-08-19T08:41:29.362Z,99486.47
2022-08-19T08:43:58.077Z,99475.84
2022-08-19T08:46:48.973Z,99482.47
2022-08-19T08:50:00.447Z,99476.78
2022-08-19T08:52:36.252Z,99476.66
2022-08-19T08:55:20.447Z,99472.72
2022-08-19T08:57:52.140Z,99482.97
2022-08-19T09:00:27.610Z,99484.53
2022-08-19T09:02:56.524Z,99478.38
2022-08-19T09:05:27.296Z,99483.72
2022-08-19T09:08:19.277Z,99487.38
2022-08-19T09:10:55.465Z,99483.97
2022-08-19T09:13:52.992Z,99483.00
2022-08-19T09:16:27.941Z,99473.69
2022-08-19T09:19:06.859Z,99473.72
2022-08-19T09:21:34.405Z,99470.50
2022-08-19T09:24:06.428Z,99468.28
2022-08-19T09:26:35.263Z,99466.66
2022-08-19T09:29:15.244Z,99471.59
2022-08-19T09:31:42.406Z,99460.72
2022-08-19T09:34:09.381Z,99469.75
2022-08-19T09:36:54.009Z,99467.41
2022-08-19T09:39:22.969Z,99474.28
2022-08-19T09:41:50.881Z,99472.41
2022-08-19T09:44:18.976Z,99472.69
2022-08-19T09:46:49.136Z,99461.97
2022-08-19T09:49:22.639Z,99462.75
2022-08-19T09:51:55.337Z,99466.34
2022-08-19T09:54:23.535Z,99478.06
2022-08-19T09:56:53.324Z,99469.88
2022-08-19T09:59:21.325Z,99460.56
2022-08-19T10:01:48.515Z,99460.63
2022-08-19T10:04:23.167Z,99461.78
2022-08-19T10:06:57.550Z,99464.09
2022-08-19T10:09:33.806Z,99464.59
2022-08-19T10:12:02.506Z,99467.34
2022-08-19T10:14:30.150Z,99473.69
2022-08-19T10:16:57.526Z,99477.28
2022-08-19T10:19:26.834Z,99477.47
2022-08-19T10:21:55.561Z,99475.06
2022-08-19T10:24:28.452Z,99472.19
2022-08-19T10:26:58.774Z,99475.28
2022-08-19T10:29:32.516Z,99468.00
2022-08-19T10:32:03.331Z,99471.88
2022-08-19T10:34:31.774Z,99466.91
2022-08-19T10:37:01.939Z,99467.84
2022-08-19T10:39:32.925Z,99463.50
2022-08-19T10:42:14.147Z,99460.78
2022-08-19T10:44:42.711Z,99460.28
2022-08-19T10:47:18.015Z,99454.63
2022-08-19T10:50:18.307Z,99448.63
2022-08-19T10:52:49.961Z,99447.50
2022-08-19T10:55:43.078Z,99441.03
2022-08-19T10:58:17.031Z,99437.16
2022-08-19T11:00:44.779Z,99438.44
2022-08-19T11:03:12.750Z,99427.28
2022-08-19T11:05:40.654Z,99419.19
2022-08-19T11:08:23.263Z,99415.94
2022-08-19T11:10:58.410Z,99408.81
2022-08-19T11:13:26.007Z,99410.44
2022-08-19T11:16:14.240Z,99404.78
2022-08-19T11:18:46.188Z,99418.69
2022-08-19T11:21:23.209Z,99412.69
2022-08-19T11:23:54.252Z,99421.41
2022-08-19T11:26:22.601Z,99406.16
2022-08-19T11:28:53.372Z,99398.69
2022-08-19T11:31:28.903Z,99408.19
2022-08-19T11:34:00.542Z,99400.88
2022-08-19T11:36:28.285Z,99412.03
2022-08-19T11:38:55.811Z,99413.81
2022-08-19T11:41:24.541Z,99418.91
2022-08-19T11:43:55.084Z,99408.78
2022-08-19T11:46:25.194Z,99405.38
2022-08-19T11:48:52.252Z,99398.41
2022-08-19T11:51:23.267Z,99404.06
2022-08-19T11:53:51.250Z,99405.84
2022-08-19T11:56:19.943Z,99404.38
2022-08-19T11:58:47.297Z,99404.72
2022-08-19T12:01:18.683Z,99402.47
2022-08-19T12:03:47.403Z,99400.56
2022-08-19T12:06:29.541Z,99405.72
2022-08-19T12:08:59.504Z,99410.63
2022-08-19T12:11:28.995Z,99418.06
2022-08-19T12:13:58.334Z,99420.97
2022-08-19T12:16:29.395Z,99417.44
2022-08-19T12:18:58.634Z,99419.66
2022-08-19T12:21:31.290Z,99416.13
2022-08-19T12:24:01.288Z,99427.63
2022-08-19T12:26:30.204Z,99417.44
2022-08-19T12:28:57.215Z,99419.19
2022-08-19T12:31:24.383Z,99426.81
2022-08-19T12:33:53.330Z,99428.25
2022-08-19T12:36:20.649Z,99425.69
2022-08-19T12:38:47.715Z,99430.22
2022-08-19T12:41:18.672Z,99431.69
2022-08-19T12:43:46.449Z,99424.22
2022-08-19T12:46:13.760Z,99416.47
2022-08-19T12:48:42.867Z,99418.88
2022-08-19T12:51:14.936Z,99413.84
2022-08-19T12:53:42.812Z,99412.56
2022-08-19T12:56:12.893Z,99421.28
2022-08-19T12:58:42.630Z,99426.13
2022-08-19T13:01:17.811Z,99420.47
2022-08-19T13:03:49.125Z,99420.63
2022-08-19T13:06:19.055Z,99425.31
2022-08-19T13:08:47.420Z,99415.00
2022-08-19T13:11:21.494Z,99409.50
2022-08-19T13:13:52.952Z,99418.06
2022-08-19T13:16:21.296Z,99411.41
2022-08-19T13:18:49.086Z,99408.69
2022-08-19T13:21:16.277Z,99412.38
2022-08-19T13:23:43.991Z,99404.88
2022-08-19T13:26:13.362Z,99401.97
2022-08-19T13:29:00.703Z,99404.19
2022-08-19T13:31:49.262Z,99399.50
2022-08-19T13:34:20.072Z,99402.25
2022-08-19T13:36:47.509Z,99399.84
2022-08-19T13:39:14.630Z,99407.41
2022-08-19T13:41:50.761Z,99400.59
2022-08-19T13:44:19.332Z,99403.34
2022-08-19T13:46:49.541Z,99403.69
2022-08-19T13:49:21.651Z,99399.16
2022-08-19T13:51:48.739Z,99393.50
2022-08-19T13:54:15.785Z,99399.16
2022-08-19T13:56:45.394Z,99393.94
2022-08-19T13:59:13.328Z,99397.50
2022-08-19T14:01:42.112Z,99382.09
2022-08-19T14:04:09.467Z,99387.25
2022-08-19T14:06:36.956Z,99385.94
2022-08-19T14:09:05.532Z,99373.78
2022-08-19T14:11:32.598Z,99378.59
2022-08-19T14:13:59.865Z,99367.59
2022-08-19T14:16:28.128Z,99358.34
2022-08-19T14:18:55.775Z,99365.34
2022-08-19T14:21:25.189Z,99379.56
2022-08-19T14:23:52.986Z,99376.63
2022-08-19T14:26:22.459Z,99374.69
2022-08-19T14:28:50.328Z,99375.31
2022-08-19T14:31:19.972Z,99378.88
2022-08-19T14:33:48.763Z,99376.13
2022-08-19T14:36:15.936Z,99378.22
2022-08-19T14:38:43.589Z,99376.63
2022-08-19T14:41:20.337Z,99374.84
2022-08-19T14:43:50.714Z,99367.06
2022-08-19T14:46:21.800Z,99362.34
2022-08-19T14:48:51.906Z,99377.28
2022-08-19T14:51:21.815Z,99373.09
2022-08-19T14:53:52.854Z,99363.41
2022-08-19T14:56:25.477Z,99362.47
2022-08-19T14:58:53.590Z,99364.63
2022-08-19T15:01:23.770Z,99364.16
2022-08-19T15:03:53.806Z,99366.41
2022-08-19T15:06:23.063Z,99362.53
2022-08-19T15:08:52.538Z,99359.28
2022-08-19T15:11:23.929Z,99355.25
2022-08-19T15:13:51.861Z,99361.38
2022-08-19T15:16:20.048Z,99354.44
2022-08-19T15:18:50.726Z,99353.34
2022-08-19T15:21:26.541Z,99359.53
2022-08-19T15:23:57.258Z,99363.13
2022-08-19T15:26:26.071Z,99367.22
2022-08-19T15:28:53.210Z,99365.91
2022-08-19T15:31:28.417Z,99360.59
2022-08-19T15:33:59.120Z,99372.06
2022-08-19T15:36:27.243Z,99373.38
2022-08-19T15:38:56.054Z,99367.72
2022-08-19T15:41:30.878Z,99376.31
2022-08-19T15:44:13.198Z,99374.69
2022-08-19T15:46:43.703Z,99372.13
2022-08-19T15:49:14.159Z,99369.88
2022-08-19T15:51:44.144Z,99365.84
2022-08-19T15:54:17.387Z,99369.56
2022-08-19T15:57:03.458Z,99370.22
2022-08-19T15:59:49.003Z,99371.03
2022-08-19T16:02:38.195Z,99375.72
2022-08-19T16:05:28.881Z,99370.84
2022-08-19T16:07:57.188Z,99369.25
2022-08-19T16:10:26.289Z,99377.81
2022-08-19T16:13:00.927Z,99373.94
2022-08-19T16:15:30.507Z,99371.00
2022-08-19T16:17:58.058Z,99375.88
2022-08-19T16:20:27.493Z,99380.72
2022-08-19T16:22:58.254Z,99374.44
2022-08-19T16:25:28.954Z,99369.75
2022-08-19T16:28:07.272Z,99370.69
2022-08-19T16:30:38.559Z,99368.75
2022-08-19T16:33:05.926Z,99372.81
2022-08-19T16:35:33.042Z,99372.31
2022-08-19T16:38:00.581Z,99373.44
2022-08-19T16:40:27.837Z,99378.63
2022-08-19T16:42:54.869Z,99371.22
2022-08-19T16:45:22.159Z,99373.13
2022-08-19T16:47:50.460Z,99381.06
2022-08-19T16:50:29.272Z,99377.19
2022-08-19T16:53:09.256Z,99376.69
2022-08-19T16:55:37.656Z,99385.25
2022-08-19T16:58:04.998Z,99380.09
2022-08-19T17:00:32.057Z,99389.00
2022-08-19T17:03:14.717Z,99389.63
2022-08-19T17:05:54.444Z,99389.31
2022-08-19T17:08:26.377Z,99391.25
2022-08-19T17:11:17.106Z,99398.22
2022-08-19T17:13:42.440Z,99388.66
2022-08-19T17:16:10.464Z,99389.78
2022-08-19T17:18:37.503Z,99392.34
2022-08-19T17:21:04.614Z,99389.25
2022-08-19T17:23:42.420Z,99393.13
2022-08-19T17:26:17.223Z,99391.38
2022-08-19T17:28:49.800Z,99399.75
2022-08-19T17:31:21.069Z,99403.31
2022-08-19T17:33:48.567Z,99402.84
2022-08-19T17:36:18.175Z,99399.91
2022-08-19T17:38:45.850Z,99398.31
2022-08-19T17:41:12.920Z,99408.00
2022-08-19T17:43:43.577Z,99407.50
2022-08-19T17:46:17.655Z,99404.59
2022-08-19T17:48:52.191Z,99409.28
2022-08-19T17:51:22.397Z,99401.66
2022-08-19T17:53:51.688Z,99401.66
2022-08-19T17:56:19.637Z,99407.28
2022-08-19T17:58:57.661Z,99401.97
2022-08-19T18:01:32.051Z,99404.53
2022-08-19T18:04:18.582Z,99401.94
2022-08-19T18:06:46.899Z,99411.72
2022-08-19T18:09:20.616Z,99408.50
2022-08-19T18:11:47.923Z,99414.78
2022-08-19T18:14:28.121Z,99419.75
2022-08-19T18:17:09.385Z,99424.28
2022-08-19T18:19:42.181Z,99424.91
2022-08-19T18:22:31.315Z,99428.28
2022-08-19T18:24:59.077Z,99435.03
2022-08-19T18:27:27.791Z,99429.19
2022-08-19T18:29:59.145Z,99429.97
2022-08-19T18:32:32.392Z,99432.34
2022-08-19T18:35:01.799Z,99432.47
2022-08-19T18:37:29.260Z,99440.00
2022-08-19T18:40:15.685Z,99441.53
2022-08-19T18:43:04.101Z,99444.72
2022-08-19T18:45:50.587Z,99438.19
2022-08-19T18:48:36.514Z,99445.41
2022-08-19T18:51:03.601Z,99449.00
2022-08-19T18:53:34.657Z,99449.84
2022-08-19T18:56:09.957Z,99450.78
2022-08-19T18:58:38.299Z,99459.41
2022-08-19T19:01:15.176Z,99454.66
2022-08-19T19:03:47.870Z,99466.31
2022-08-19T19:06:23.191Z,99453.75
2022-08-19T19:08:52.745Z,99460.75
2022-08-19T19:11:32.360Z,99464.41
2022-08-19T19:14:03.870Z,99467.28
2022-08-19T19:16:32.281Z,99467.28
2022-08-19T19:18:59.747Z,99479.63
2022-08-19T19:21:26.786Z,99474.16
2022-08-19T19:23:55.441Z,99480.25
2022-08-19T19:26:23.088Z,99476.47
2022-08-19T19:28:51.394Z,99472.94
2022-08-19T19:31:28.391Z,99478.41
2022-08-19T19:33:56.647Z,99485.19
2022-08-19T19:36:24.178Z,99483.56
2022-08-19T19:38:53.706Z,99486.22
2022-08-19T19:41:24.663Z,99487.34
2022-08-19T19:44:29.270Z,99488.53
2022-08-19T19:46:48.249Z,99488.31
2022-08-19T19:49:15.353Z,99488.09
2022-08-19T19:51:43.613Z,99503.19
2022-08-19T19:54:19.548Z,99498.63
2022-08-19T19:56:51.184Z,99498.09
2022-08-19T19:59:18.689Z,99505.50
2022-08-19T20:01:50.399Z,99498.22
2022-08-19T20:04:21.624Z,99509.88
2022-08-19T20:06:48.855Z,99511.75
2022-08-19T20:09:19.783Z,99518.06
2022-08-19T20:11:53.510Z,99519.69
2022-08-19T20:14:26.972Z,99525.97
2022-08-19T20:16:56.045Z,99531.13
2022-08-19T20:19:36.849Z,99536.91
2022-08-19T20:22:05.819Z,99540.44
2022-08-19T20:24:35.539Z,99544.00
2022-08-19T20:27:04.835Z,99543.19
2022-08-19T20:29:39.287Z,99545.63
2022-08-19T20:32:10.410Z,99543.78
2022-08-19T20:34:39.152Z,99550.34
2022-08-19T20:37:09.071Z,99553.72
2022-08-19T20:39:36.816Z,99557.03
2022-08-19T20:42:04.614Z,99557.63
2022-08-19T20:44:34.428Z,99558.22
2022-08-19T20:47:04.011Z,99558.81
2022-08-19T20:49:32.192Z,99559.41
2022-08-19T20:51:59.358Z,99564.97
2022-08-19T20:54:27.037Z,99569.41
2022-08-19T20:56:55.173Z,99566.75
2022-08-19T20:59:23.901Z,99571.19
2022-08-19T21:01:52.209Z,99568.53
2022-08-19T21:04:21.403Z,99574.84
2022-08-19T21:06:51.072Z,99570.84
2022-08-19T21:09:21.472Z,99572.03
2022-08-19T21:11:48.669Z,99583.88
2022-08-19T21:14:15.754Z,99594.06
2022-08-19T21:16:42.822Z,99589.16
2022-08-19T21:19:09.914Z,99582.13
2022-08-19T21:21:36.924Z,99593.97
2022-08-19T21:24:07.253Z,99604.63
2022-08-19T21:26:34.238Z,99607.44
2022-08-19T21:29:01.250Z,99608.31
2022-08-19T21:31:28.237Z,99602.63
2022-08-19T21:33:55.740Z,99605.41
2022-08-19T21:36:22.947Z,99601.66
2022-08-19T21:38:49.933Z,99603.28
2022-08-19T21:41:16.920Z,99598.69
2022-08-19T21:43:43.908Z,99606.97
2022-08-19T21:46:11.917Z,99611.66
2022-08-19T21:48:38.924Z,99615.53
2022-08-19T21:51:06.149Z,99614.47
2022-08-19T21:53:34.142Z,99609.34
2022-08-19T21:56:06.358Z,99612.97
2022-08-19T21:58:34.325Z,99616.03
2022-08-19T22:01:05.834Z,99619.91
2022-08-19T22:03:38.422Z,99626.72
2022-08-19T22:06:09.468Z,99617.81
2022-08-19T22:08:36.888Z,99628.50
2022-08-19T22:11:04.702Z,99619.28
2022-08-19T22:13:40.042Z,99618.97
2022-08-19T22:16:08.322Z,99624.75
2022-08-19T22:18:35.521Z,99628.88
2022-08-19T22:21:07.255Z,99630.53
2022-08-19T22:23:36.725Z,99625.66
2022-08-19T22:26:03.714Z,99631.97
2022-08-19T22:28:30.677Z,99636.34
2022-08-19T22:30:57.785Z,99631.47
2022-08-19T22:33:27.495Z,99644.03
2022-08-19T22:35:54.509Z,99639.97
2022-08-19T22:38:22.539Z,99632.63
2022-08-19T22:40:51.067Z,99640.56
2022-08-19T22:43:22.668Z,99641.41
2022-08-19T22:45:52.295Z,99639.50
2022-08-19T22:48:24.934Z,99646.06
2022-08-19T22:51:12.087Z,99650.50
2022-08-19T22:53:45.023Z,99643.97
2022-08-19T22:56:15.441Z,99645.91
2022-08-19T22:58:43.561Z,99644.28
2022-08-19T23:01:14.684Z,99638.56
2022-08-19T23:03:57.325Z,99643.78
2022-08-19T23:06:33.881Z,99640.25
2022-08-19T23:09:05.253Z,99649.00
2022-08-19T23:11:35.648Z,99653.91
2022-08-19T23:14:07.116Z,99651.25
2022-08-19T23:16:35.921Z,99642.25
2022-08-19T23:19:03.390Z,99645.53
2022-08-19T23:21:30.366Z,99639.56
2022-08-19T23:23:57.506Z,99640.66
2022-08-19T23:26:24.528Z,99642.81
2022-08-19T23:29:10.034Z,99645.53
2022-08-19T23:31:37.085Z,99646.63
2022-08-19T23:34:04.138Z,99636.28
2022-08-19T23:36:31.259Z,99642.81
2022-08-19T23:38:59.557Z,99644.19
2022-08-19T23:41:29.958Z,99646.91
2022-08-19T23:43:57.383Z,99636.28
2022-08-19T23:46:28.237Z,99643.91
2022-08-19T23:48:57.323Z,99639.56
2022-08-19T23:51:26.733Z,99636.03
2022-08-19T23:53:53.908Z,99649.34
2022-08-19T23:56:21.437Z,99638.19
2022-08-19T23:58:49.046Z,99641.72
